Aviation Digital Data Service (ADDS)

Output produced by METARs form (1410 UTC 23 January 2019)
found at http://www.aviationweather.gov/metar/data/
 
Forecast for: HLKF (KUFRA (MIL/CIV) , LY)
Text: TAF HLKF 231100Z 2312/2412 20012KT CAVOK
Forecast period: 1200 to 2000 UTC 23 January 2019
Forecast type: FROM: standard forecast or significant change
Winds: from the SSW (200 degrees) at 14 MPH (12 knots; 6.2 m/s)
Visibility: 6 or more miles 10+ km)
Ceiling: unknown
Clouds: missing
Weather: NSW  (no significant weather)
Text: BECMG 2320/2322 30010KT
Forecast period: 2000 UTC 23 January 2019 to 1200 UTC 24 January 2019
Forecast type: BECOMING: Conditions expected to become as follows by 2200 UTC 23 January 2019
Winds: from the WNW (300 degrees) at 12 MPH (10 knots; 5.1 m/s)
Visibility: 6 or more miles 10+ km)
Ceiling: unknown
Clouds: missing
Weather: NSW  (no significant weather)